Rawlins, WY

4:26 PM MDT on August 27, 2014 (GMT -0600)
Downtown | Change Station
CLOSE
Current Station
Personal Weather Station
Location: Sinclair, Wy
Elevation: 6611 ft
Nearby Weather Stations

Elev 6611 ft 41.78 °N, 107.12 °W | Updated 3 seconds ago

Overcast
Overcast
61.6 °F
Feels Like 61.6 °F
N
8.6
Wind Variable Wind from WSW
Gusts 13.9 mph

Today
High -- | Low -- °F
--% Chance of Precip.
Yesterday
High -- | Low -- °F
Precip. -- in
6:29 AM 7:50 PM
Waxing Crescent, 5% visible
Pressure 30.04 in
Visibility 10.0 miles
Clouds Few 4600 ft
Scattered Clouds 6000 ft
Overcast 7000 ft
Dew Point 51 °F
Humidity 68%
Rainfall 0.22 in
Snow Depth Not available.
UV 2 out of 12
Pollen 7.90 out of 12
Air Quality Not available.
Flu Activity Not available.
METAR KRWL 272153Z AUTO 26010KT 10SM FEW046 SCT060 OVC070 16/08 A3025 RMK AO2 SLP171 T01610083

More Conditions Fewer Conditions

Pressure 30.04 in
Visibility 10.0 miles
Clouds Few 4600 ft
Scattered Clouds 6000 ft
Overcast 7000 ft
Dew Point 51 °F
Humidity 68%
Rainfall 0.22 in
Snow Depth Not available.
UV 2 out of 12
Pollen 7.90 out of 12
Air Quality Not available.
Flu Activity Not available.
METAR KRWL 272153Z AUTO 26010KT 10SM FEW046 SCT060 OVC070 16/08 A3025 RMK AO2 SLP171 T01610083

More Conditions Fewer Conditions

10-Day Weather Forecast

Almanac

Astronomy

Aug. 27, 2014 Rise Set
Actual Time 6:29 AM MDT 7:50 PM MDT
Civil Twilight 6:00 AM MDT 8:19 PM MDT
Nautical Twilight 5:25 AM MDT 8:53 PM MDT
Astronomical Twilight 4:49 AM MDT 9:30 PM MDT
Moon 8:30 AM MDT 8:41 PM MDT
Length of Visible Light 14h 18m
Length of Day
13h 20m
Tomorrow will be 2m 39s shorter.
Waxing Crescent, 5% of the Moon is Illuminated
Today
Waxing Crescent
Sep 2
First Quarter
Sep 8
Full
Sep 15
Last Quarter
Sep 24
New

Today's Extremes

State Highs State Lows

Community

WunderPhotos

Upload Photos

1,747,806 photos uploaded!

Nearby

Snow Depth

Station Depth Elevation
Webber Springs 0 in 9250 ft
Old Battle 0 in 9920 ft
Sandstone R.S. 0 in 8150 ft
South Brush Creek 0 in 8440 ft
Battle Mountain 0 in 7440 ft

Earthquake Activity

City Distance Mag. Time & Date
No recent earthquake activity has been reported nearby.
Minimum magnitude displayed is 2.5.

Coastal Water Temperatures

Place Temperature
No Stations Reporting

Nearby Weather Stations